首页
METAR-TAF:

METAR-TAF

机场 :

维尔纽斯国际机场

维尔纽斯, 立陶宛

纬度: 54-38N, 经度: 025-06E, 海拔: 162米

当前天气观测

该预报发布于31分钟前的15:50 UTC
风速2节,风向东南
温度 8°C
湿度 53%
气压 1022 hPa
能见度10公里或以上
1500米以下无云,无积雨云

METAR: EYVI 231550Z 13002KT CAVOK 08/M01 Q1022 NOSIG

时间: 19:21 (16:21 UTC)

预报

该预报发布于5小时和15分钟前的11:06 UTC
预报有效从23日的 12点(UTC)到 24日的 12点(UTC)
风速5节,风向多变
能見度: 9000
散云层高于3000英尺
成为
从 23日的 16点(UTC)到 23日的 17点(UTC)
短暂存在
从 24日的 00点(UTC)到 24日的 05点(UTC)
能見度: 1500
散云层高于300英尺
浅雾, 轻雾

TAF: EYVI 231106Z 2312/2412 VRB05KT 9000 SCT030 BECMG 2316/2317 NSC TEMPO 2400/2405 1500 MIFG BR SCT003

超过4000个机场的气象观测和天气预报(METAR&TAF报告)。

可查询的气象台以黄色和红色小点在地图上表示。

将鼠标移到小点上方,可查看气象台名称。

然后点击查看天气观测和预报。

如需切换地图:点击带黑十字的绿色按钮放大地图;点击带横线的绿色按钮缩小地图;或者点击绿色箭头查看邻近地区的地图。


METAR-TAF: